SAS2839 ESGG-EDDB
Flight info
| Callsign | SAS2839 |
|---|---|
| Flight time | 0h 56m |
| Altitude | 37000 |
| Route | TOPLA L996 ATRIB DCT SALLO DCT USEDU Z14 BEKBA T280 KETAP KETAP1R |
| Aircraft | A319/M-SDE3FGIJ1RWXY/LB1 |
Departure
| Time | 2026-05-07 16:38 |
|---|---|
| Airport | Göteborg Landvetter Airport (ESGG) |
Arrival
| Time | 2026-05-07 17:35 |
|---|---|
| Airport | Berlin Brandenburg Airport (EDDB) |
| Time | Latitude | Longitude | Altitude | Speed | Heading |
|---|---|---|---|---|---|
| 2026-05-07 16:11 | 57.66727 | 12.29269 | 516 ft | 0 kts | 116° |
| 2026-05-07 16:30 | 57.66731 | 12.29254 | 516 ft | 4 kts | 121° |
| 2026-05-07 16:31 | 57.66742 | 12.29220 | 516 ft | 3 kts | 113° |
| 2026-05-07 16:31 | 57.66746 | 12.29183 | 516 ft | 3 kts | 116° |
| 2026-05-07 16:31 | 57.66759 | 12.29156 | 516 ft | 4 kts | 190° |
| 2026-05-07 16:31 | 57.66781 | 12.29172 | 516 ft | 4 kts | 205° |
| 2026-05-07 16:32 | 57.66790 | 12.29180 | 516 ft | 0 kts | 206° |
| 2026-05-07 16:34 | 57.66788 | 12.29178 | 516 ft | 1 kts | 206° |
| 2026-05-07 16:34 | 57.66771 | 12.29157 | 516 ft | 5 kts | 223° |
| 2026-05-07 16:34 | 57.66778 | 12.29084 | 516 ft | 8 kts | 295° |
| 2026-05-07 16:35 | 57.66793 | 12.29034 | 516 ft | 3 kts | 308° |
| 2026-05-07 16:35 | 57.66834 | 12.29000 | 516 ft | 11 kts | 5° |
| 2026-05-07 16:35 | 57.66923 | 12.29076 | 516 ft | 16 kts | 26° |
| 2026-05-07 16:35 | 57.67034 | 12.29177 | 516 ft | 19 kts | 26° |
| 2026-05-07 16:36 | 57.67164 | 12.29294 | 516 ft | 22 kts | 26° |
| 2026-05-07 16:36 | 57.67284 | 12.29404 | 516 ft | 15 kts | 26° |
| 2026-05-07 16:36 | 57.67372 | 12.29483 | 516 ft | 11 kts | 23° |
| 2026-05-07 16:36 | 57.67431 | 12.29400 | 516 ft | 13 kts | 297° |
| 2026-05-07 16:37 | 57.67465 | 12.29230 | 515 ft | 13 kts | 268° |
| 2026-05-07 16:37 | 57.67450 | 12.29044 | 515 ft | 15 kts | 248° |
| 2026-05-07 16:37 | 57.67406 | 12.29002 | 515 ft | 6 kts | 204° |
| 2026-05-07 16:37 | 57.67179 | 12.28796 | 514 ft | 72 kts | 206° |
| 2026-05-07 16:38 | 57.66445 | 12.28128 | 516 ft | 158 kts | 206° |
| 2026-05-07 16:38 | 57.65443 | 12.27249 | 1321 ft | 157 kts | 208° |
| 2026-05-07 16:38 | 57.64452 | 12.26364 | 2225 ft | 158 kts | 209° |
| 2026-05-07 16:38 | 57.63464 | 12.25461 | 2976 ft | 165 kts | 208° |
| 2026-05-07 16:39 | 57.62370 | 12.24440 | 3339 ft | 185 kts | 209° |
| 2026-05-07 16:39 | 57.61160 | 12.23333 | 3775 ft | 203 kts | 203° |
| 2026-05-07 16:39 | 57.59686 | 12.22756 | 4144 ft | 230 kts | 186° |
| 2026-05-07 16:39 | 57.58023 | 12.22536 | 4676 ft | 254 kts | 182° |
| 2026-05-07 16:40 | 57.56211 | 12.22400 | 5519 ft | 265 kts | 181° |
| 2026-05-07 16:40 | 57.54366 | 12.22775 | 6511 ft | 269 kts | 168° |
| 2026-05-07 16:40 | 57.52505 | 12.23420 | 7478 ft | 274 kts | 171° |
| 2026-05-07 16:40 | 57.50611 | 12.24083 | 8428 ft | 279 kts | 169° |
| 2026-05-07 16:41 | 57.48705 | 12.24933 | 9367 ft | 284 kts | 168° |
| 2026-05-07 16:41 | 57.46769 | 12.25874 | 10275 ft | 290 kts | 167° |
| 2026-05-07 16:41 | 57.44776 | 12.26858 | 10692 ft | 312 kts | 167° |
| 2026-05-07 16:41 | 57.42611 | 12.27918 | 11195 ft | 327 kts | 167° |
| 2026-05-07 16:42 | 57.40383 | 12.28998 | 11954 ft | 332 kts | 167° |
| 2026-05-07 16:42 | 57.38133 | 12.30081 | 12757 ft | 337 kts | 167° |
| 2026-05-07 16:42 | 57.35842 | 12.31172 | 13568 ft | 342 kts | 168° |
| 2026-05-07 16:42 | 57.33520 | 12.32267 | 14301 ft | 346 kts | 168° |
| 2026-05-07 16:43 | 57.31167 | 12.33373 | 14879 ft | 350 kts | 168° |
| 2026-05-07 16:43 | 57.28799 | 12.34480 | 15072 ft | 351 kts | 168° |
| 2026-05-07 16:43 | 57.26463 | 12.35566 | 15123 ft | 351 kts | 168° |
| 2026-05-07 16:43 | 57.24076 | 12.36677 | 15673 ft | 355 kts | 168° |
| 2026-05-07 16:44 | 57.21668 | 12.37801 | 16392 ft | 357 kts | 168° |
| 2026-05-07 16:44 | 57.19247 | 12.38928 | 17087 ft | 360 kts | 168° |
| 2026-05-07 16:44 | 57.16788 | 12.40072 | 17791 ft | 364 kts | 168° |
| 2026-05-07 16:44 | 57.14349 | 12.41206 | 18471 ft | 368 kts | 168° |
| 2026-05-07 16:45 | 57.11844 | 12.42369 | 19067 ft | 371 kts | 168° |
| 2026-05-07 16:45 | 57.10172 | 12.43145 | 19462 ft | 374 kts | 168° |
| 2026-05-07 16:45 | 57.06802 | 12.44703 | 20262 ft | 378 kts | 168° |
| 2026-05-07 16:45 | 57.04235 | 12.45883 | 20868 ft | 382 kts | 168° |
| 2026-05-07 16:46 | 57.01643 | 12.47074 | 21440 ft | 385 kts | 168° |
| 2026-05-07 16:46 | 56.99915 | 12.47870 | 21822 ft | 388 kts | 168° |
| 2026-05-07 16:46 | 56.97285 | 12.49087 | 22397 ft | 391 kts | 168° |
| 2026-05-07 16:46 | 56.93762 | 12.50720 | 23139 ft | 396 kts | 168° |
| 2026-05-07 16:47 | 56.91043 | 12.51967 | 23313 ft | 410 kts | 168° |
| 2026-05-07 16:47 | 56.89143 | 12.52829 | 23409 ft | 418 kts | 168° |
| 2026-05-07 16:47 | 56.86272 | 12.54127 | 23553 ft | 430 kts | 168° |
| 2026-05-07 16:47 | 56.83364 | 12.55445 | 23690 ft | 440 kts | 168° |
| 2026-05-07 16:48 | 56.80363 | 12.56809 | 23810 ft | 449 kts | 168° |
| 2026-05-07 16:48 | 56.77300 | 12.58205 | 23925 ft | 458 kts | 168° |
| 2026-05-07 16:48 | 56.74174 | 12.59634 | 24034 ft | 465 kts | 168° |
| 2026-05-07 16:48 | 56.71045 | 12.61063 | 24211 ft | 469 kts | 167° |
| 2026-05-07 16:49 | 56.67866 | 12.62511 | 24483 ft | 472 kts | 167° |
| 2026-05-07 16:49 | 56.64673 | 12.63961 | 24755 ft | 474 kts | 167° |
| 2026-05-07 16:49 | 56.61462 | 12.65411 | 25028 ft | 475 kts | 167° |
| 2026-05-07 16:49 | 56.58230 | 12.66864 | 25293 ft | 477 kts | 167° |
| 2026-05-07 16:50 | 56.54997 | 12.68315 | 25555 ft | 479 kts | 167° |
| 2026-05-07 16:50 | 56.51789 | 12.69754 | 25809 ft | 481 kts | 167° |
| 2026-05-07 16:50 | 56.48540 | 12.71211 | 26072 ft | 482 kts | 167° |
| 2026-05-07 16:50 | 56.45279 | 12.72671 | 26433 ft | 481 kts | 167° |
| 2026-05-07 16:51 | 56.42030 | 12.74126 | 26817 ft | 480 kts | 167° |
| 2026-05-07 16:51 | 56.38781 | 12.75576 | 27194 ft | 479 kts | 167° |
| 2026-05-07 16:51 | 56.35577 | 12.77003 | 27527 ft | 480 kts | 167° |
| 2026-05-07 16:51 | 56.32335 | 12.78442 | 27892 ft | 480 kts | 167° |
| 2026-05-07 16:52 | 56.29101 | 12.79875 | 28317 ft | 479 kts | 167° |
| 2026-05-07 16:52 | 56.25861 | 12.81313 | 28695 ft | 479 kts | 167° |
| 2026-05-07 16:52 | 56.22628 | 12.82746 | 29151 ft | 478 kts | 167° |
| 2026-05-07 16:52 | 56.19399 | 12.84172 | 29585 ft | 477 kts | 167° |
| 2026-05-07 16:53 | 56.16180 | 12.85588 | 30050 ft | 475 kts | 167° |
| 2026-05-07 16:53 | 56.12957 | 12.87001 | 30400 ft | 476 kts | 166° |
| 2026-05-07 16:53 | 56.09750 | 12.88407 | 30804 ft | 474 kts | 166° |
| 2026-05-07 16:53 | 56.06576 | 12.89800 | 31125 ft | 475 kts | 166° |
| 2026-05-07 16:54 | 56.03356 | 12.91208 | 31422 ft | 477 kts | 166° |
| 2026-05-07 16:54 | 56.00133 | 12.92614 | 31818 ft | 475 kts | 166° |
| 2026-05-07 16:54 | 55.96920 | 12.94011 | 32273 ft | 473 kts | 166° |
| 2026-05-07 16:54 | 55.93724 | 12.95403 | 32646 ft | 473 kts | 166° |
| 2026-05-07 16:55 | 55.90530 | 12.96793 | 33067 ft | 471 kts | 166° |
| 2026-05-07 16:55 | 55.87383 | 12.98155 | 33489 ft | 470 kts | 166° |
| 2026-05-07 16:55 | 55.84210 | 12.99520 | 33918 ft | 469 kts | 166° |
| 2026-05-07 16:55 | 55.81031 | 13.00889 | 34290 ft | 468 kts | 166° |
| 2026-05-07 16:56 | 55.77856 | 13.02257 | 34631 ft | 468 kts | 166° |
| 2026-05-07 16:56 | 55.74696 | 13.03622 | 34977 ft | 467 kts | 166° |
| 2026-05-07 16:56 | 55.68417 | 13.06328 | 35687 ft | 465 kts | 167° |
| 2026-05-07 16:57 | 55.65279 | 13.07673 | 36109 ft | 462 kts | 167° |
| 2026-05-07 16:57 | 55.62160 | 13.09007 | 36492 ft | 460 kts | 167° |
| 2026-05-07 16:57 | 55.59050 | 13.10336 | 36844 ft | 459 kts | 167° |
| 2026-05-07 16:57 | 55.55938 | 13.11664 | 37077 ft | 460 kts | 167° |
| 2026-05-07 16:58 | 55.49741 | 13.14297 | 37115 ft | 456 kts | 167° |
| 2026-05-07 16:58 | 55.43570 | 13.16914 | 37115 ft | 456 kts | 168° |
| 2026-05-07 16:59 | 55.37437 | 13.19511 | 37120 ft | 455 kts | 167° |
| 2026-05-07 16:59 | 55.31256 | 13.22123 | 37123 ft | 455 kts | 168° |
| 2026-05-07 17:00 | 55.25086 | 13.24714 | 37129 ft | 455 kts | 167° |
| 2026-05-07 17:00 | 55.18879 | 13.26545 | 37137 ft | 454 kts | 174° |
| 2026-05-07 17:01 | 55.12592 | 13.27853 | 37130 ft | 454 kts | 175° |
| 2026-05-07 17:01 | 55.06300 | 13.29102 | 37143 ft | 454 kts | 174° |
| 2026-05-07 17:02 | 55.00071 | 13.30381 | 37140 ft | 453 kts | 174° |
| 2026-05-07 17:02 | 54.93804 | 13.31698 | 37137 ft | 453 kts | 174° |
| 2026-05-07 17:03 | 54.87543 | 13.33008 | 37143 ft | 452 kts | 174° |
| 2026-05-07 17:03 | 54.81289 | 13.34298 | 37145 ft | 452 kts | 174° |
| 2026-05-07 17:04 | 54.75059 | 13.35572 | 37143 ft | 452 kts | 174° |
| 2026-05-07 17:04 | 54.68807 | 13.36851 | 37142 ft | 453 kts | 174° |
| 2026-05-07 17:05 | 54.62537 | 13.38130 | 37136 ft | 453 kts | 174° |
| 2026-05-07 17:05 | 54.56281 | 13.39417 | 37137 ft | 452 kts | 174° |
| 2026-05-07 17:06 | 54.50083 | 13.40681 | 37137 ft | 452 kts | 174° |
| 2026-05-07 17:06 | 54.43830 | 13.41935 | 37142 ft | 452 kts | 174° |
| 2026-05-07 17:07 | 54.37581 | 13.43182 | 37132 ft | 452 kts | 174° |
| 2026-05-07 17:07 | 54.31324 | 13.44438 | 37125 ft | 452 kts | 174° |
| 2026-05-07 17:08 | 54.25105 | 13.45700 | 37131 ft | 451 kts | 174° |
| 2026-05-07 17:08 | 54.18856 | 13.46963 | 37122 ft | 451 kts | 174° |
| 2026-05-07 17:09 | 54.12649 | 13.48195 | 37129 ft | 451 kts | 175° |
| 2026-05-07 17:09 | 54.06403 | 13.49424 | 37123 ft | 451 kts | 174° |
| 2026-05-07 17:10 | 54.00205 | 13.50660 | 37114 ft | 451 kts | 174° |
| 2026-05-07 17:10 | 53.93973 | 13.51894 | 36977 ft | 450 kts | 174° |
| 2026-05-07 17:11 | 53.90844 | 13.52509 | 36305 ft | 450 kts | 174° |
| 2026-05-07 17:11 | 53.87764 | 13.53112 | 35573 ft | 449 kts | 174° |
| 2026-05-07 17:11 | 53.84660 | 13.53242 | 34783 ft | 446 kts | 187° |
| 2026-05-07 17:11 | 53.81632 | 13.52098 | 33998 ft | 446 kts | 197° |
| 2026-05-07 17:12 | 53.78648 | 13.50558 | 33181 ft | 447 kts | 197° |
| 2026-05-07 17:12 | 53.75713 | 13.49022 | 32397 ft | 447 kts | 197° |
| 2026-05-07 17:12 | 53.72746 | 13.47461 | 31565 ft | 447 kts | 197° |
| 2026-05-07 17:12 | 53.69753 | 13.45892 | 30683 ft | 449 kts | 197° |
| 2026-05-07 17:13 | 53.66759 | 13.44328 | 29729 ft | 451 kts | 197° |
| 2026-05-07 17:13 | 53.63755 | 13.42763 | 28798 ft | 453 kts | 197° |
| 2026-05-07 17:13 | 53.60767 | 13.41214 | 28498 ft | 457 kts | 197° |
| 2026-05-07 17:13 | 53.57710 | 13.39635 | 28219 ft | 459 kts | 197° |
| 2026-05-07 17:14 | 53.54628 | 13.38044 | 27946 ft | 460 kts | 197° |
| 2026-05-07 17:14 | 53.51576 | 13.36469 | 27677 ft | 462 kts | 197° |
| 2026-05-07 17:14 | 53.48528 | 13.34895 | 27408 ft | 464 kts | 197° |
| 2026-05-07 17:14 | 53.45429 | 13.33297 | 27149 ft | 468 kts | 197° |
| 2026-05-07 17:15 | 53.42308 | 13.31694 | 26884 ft | 470 kts | 197° |
| 2026-05-07 17:15 | 53.39170 | 13.30086 | 26616 ft | 471 kts | 197° |
| 2026-05-07 17:15 | 53.36062 | 13.28497 | 26361 ft | 472 kts | 197° |
| 2026-05-07 17:15 | 53.32907 | 13.26886 | 26104 ft | 473 kts | 197° |
| 2026-05-07 17:16 | 53.29756 | 13.25279 | 25853 ft | 474 kts | 197° |
| 2026-05-07 17:16 | 53.26597 | 13.23670 | 25604 ft | 475 kts | 197° |
| 2026-05-07 17:16 | 53.23491 | 13.22084 | 24777 ft | 471 kts | 197° |
| 2026-05-07 17:16 | 53.20320 | 13.20472 | 23333 ft | 479 kts | 198° |
| 2026-05-07 17:17 | 53.17145 | 13.18859 | 22092 ft | 477 kts | 197° |
| 2026-05-07 17:17 | 53.13999 | 13.17266 | 21299 ft | 466 kts | 197° |
| 2026-05-07 17:17 | 53.10947 | 13.15723 | 20342 ft | 459 kts | 197° |
| 2026-05-07 17:17 | 53.07918 | 13.14194 | 19327 ft | 451 kts | 198° |
| 2026-05-07 17:18 | 53.04973 | 13.12711 | 18190 ft | 444 kts | 197° |
| 2026-05-07 17:18 | 53.02044 | 13.11239 | 17157 ft | 432 kts | 197° |
| 2026-05-07 17:18 | 52.99221 | 13.09820 | 16250 ft | 420 kts | 198° |
| 2026-05-07 17:18 | 52.96450 | 13.08429 | 15370 ft | 412 kts | 198° |
| 2026-05-07 17:19 | 52.93710 | 13.07055 | 14510 ft | 411 kts | 198° |
| 2026-05-07 17:19 | 52.90972 | 13.05683 | 13673 ft | 409 kts | 197° |
| 2026-05-07 17:19 | 52.88255 | 13.04326 | 12846 ft | 405 kts | 197° |
| 2026-05-07 17:19 | 52.85581 | 13.02993 | 12089 ft | 398 kts | 197° |
| 2026-05-07 17:20 | 52.82982 | 13.01696 | 11396 ft | 391 kts | 197° |
| 2026-05-07 17:20 | 52.80454 | 13.00438 | 11227 ft | 370 kts | 197° |
| 2026-05-07 17:20 | 52.78062 | 12.99249 | 11099 ft | 349 kts | 197° |
| 2026-05-07 17:20 | 52.75800 | 12.98124 | 10975 ft | 332 kts | 197° |
| 2026-05-07 17:21 | 52.73640 | 12.97049 | 10851 ft | 317 kts | 197° |
| 2026-05-07 17:21 | 52.71582 | 12.96022 | 10731 ft | 304 kts | 197° |
| 2026-05-07 17:21 | 52.69590 | 12.95030 | 10547 ft | 295 kts | 197° |
| 2026-05-07 17:21 | 52.67635 | 12.94062 | 10279 ft | 290 kts | 197° |
| 2026-05-07 17:22 | 52.65708 | 12.93109 | 10038 ft | 287 kts | 197° |
| 2026-05-07 17:22 | 52.63801 | 12.92168 | 9699 ft | 285 kts | 197° |
| 2026-05-07 17:22 | 52.61931 | 12.91247 | 9452 ft | 283 kts | 197° |
| 2026-05-07 17:22 | 52.60031 | 12.90314 | 9319 ft | 285 kts | 197° |
| 2026-05-07 17:23 | 52.58147 | 12.89386 | 9181 ft | 278 kts | 197° |
| 2026-05-07 17:23 | 52.56333 | 12.88491 | 9048 ft | 268 kts | 197° |
| 2026-05-07 17:23 | 52.54568 | 12.87621 | 8917 ft | 260 kts | 196° |
| 2026-05-07 17:23 | 52.52849 | 12.86837 | 8741 ft | 252 kts | 189° |
| 2026-05-07 17:24 | 52.51113 | 12.86707 | 8393 ft | 248 kts | 173° |
| 2026-05-07 17:24 | 52.49464 | 12.87346 | 8014 ft | 246 kts | 159° |
| 2026-05-07 17:24 | 52.47865 | 12.88263 | 7730 ft | 240 kts | 160° |
| 2026-05-07 17:24 | 52.46314 | 12.89118 | 7459 ft | 235 kts | 160° |
| 2026-05-07 17:25 | 52.44763 | 12.89965 | 7122 ft | 234 kts | 160° |
| 2026-05-07 17:25 | 52.43218 | 12.90803 | 6788 ft | 233 kts | 160° |
| 2026-05-07 17:25 | 52.41671 | 12.91635 | 6498 ft | 233 kts | 160° |
| 2026-05-07 17:25 | 52.40133 | 12.92458 | 6193 ft | 232 kts | 160° |
| 2026-05-07 17:26 | 52.38601 | 12.93271 | 5889 ft | 231 kts | 160° |
| 2026-05-07 17:26 | 52.37097 | 12.94061 | 5621 ft | 228 kts | 160° |
| 2026-05-07 17:26 | 52.35611 | 12.94832 | 5489 ft | 219 kts | 160° |
| 2026-05-07 17:26 | 52.34220 | 12.95682 | 5355 ft | 206 kts | 144° |
| 2026-05-07 17:27 | 52.33329 | 12.97352 | 5192 ft | 191 kts | 114° |
| 2026-05-07 17:27 | 52.32802 | 12.99329 | 4943 ft | 188 kts | 109° |
| 2026-05-07 17:27 | 52.32336 | 13.01306 | 4669 ft | 188 kts | 108° |
| 2026-05-07 17:27 | 52.31875 | 13.03294 | 4397 ft | 186 kts | 108° |
| 2026-05-07 17:28 | 52.31417 | 13.05261 | 4122 ft | 185 kts | 108° |
| 2026-05-07 17:28 | 52.30961 | 13.07216 | 3904 ft | 181 kts | 108° |
| 2026-05-07 17:28 | 52.30516 | 13.09114 | 3595 ft | 181 kts | 108° |
| 2026-05-07 17:28 | 52.30061 | 13.11035 | 3286 ft | 180 kts | 108° |
| 2026-05-07 17:29 | 52.29609 | 13.12938 | 3032 ft | 179 kts | 108° |
| 2026-05-07 17:29 | 52.29158 | 13.14839 | 3003 ft | 180 kts | 108° |
| 2026-05-07 17:29 | 52.28705 | 13.16737 | 3008 ft | 180 kts | 108° |
| 2026-05-07 17:29 | 52.28294 | 13.18653 | 3003 ft | 178 kts | 98° |
| 2026-05-07 17:30 | 52.28305 | 13.20647 | 3009 ft | 176 kts | 76° |
| 2026-05-07 17:30 | 52.28716 | 13.22527 | 3009 ft | 175 kts | 67° |
| 2026-05-07 17:30 | 52.29158 | 13.24358 | 3001 ft | 175 kts | 67° |
| 2026-05-07 17:30 | 52.29605 | 13.26216 | 2860 ft | 175 kts | 68° |
| 2026-05-07 17:31 | 52.30050 | 13.28065 | 2653 ft | 172 kts | 67° |
| 2026-05-07 17:31 | 52.30478 | 13.29849 | 2428 ft | 164 kts | 67° |
| 2026-05-07 17:31 | 52.30880 | 13.31523 | 2213 ft | 152 kts | 67° |
| 2026-05-07 17:31 | 52.31250 | 13.33069 | 2010 ft | 141 kts | 67° |
| 2026-05-07 17:32 | 52.31593 | 13.34500 | 1830 ft | 134 kts | 67° |
| 2026-05-07 17:32 | 52.31931 | 13.35911 | 1643 ft | 133 kts | 67° |
| 2026-05-07 17:32 | 52.32267 | 13.37311 | 1459 ft | 132 kts | 67° |
| 2026-05-07 17:32 | 52.32489 | 13.38241 | 1337 ft | 132 kts | 67° |
| 2026-05-07 17:33 | 52.32936 | 13.40107 | 1091 ft | 132 kts | 67° |
| 2026-05-07 17:33 | 52.33282 | 13.41500 | 888 ft | 132 kts | 66° |
| 2026-05-07 17:33 | 52.33625 | 13.42906 | 721 ft | 133 kts | 68° |
| 2026-05-07 17:33 | 52.33957 | 13.44320 | 553 ft | 133 kts | 69° |
| 2026-05-07 17:34 | 52.34286 | 13.45733 | 382 ft | 133 kts | 69° |
| 2026-05-07 17:34 | 52.34620 | 13.47148 | 202 ft | 132 kts | 70° |
| 2026-05-07 17:34 | 52.34933 | 13.48493 | 154 ft | 122 kts | 69° |
| 2026-05-07 17:34 | 52.35160 | 13.49399 | 154 ft | 55 kts | 70° |
| 2026-05-07 17:35 | 52.35276 | 13.49837 | 154 ft | 33 kts | 52° |
| 2026-05-07 17:35 | 52.35423 | 13.50056 | 154 ft | 25 kts | 38° |
| 2026-05-07 17:35 | 52.35487 | 13.50140 | 154 ft | 9 kts | 39° |
| 2026-05-07 17:35 | 52.35539 | 13.50209 | 155 ft | 7 kts | 39° |
| 2026-05-07 17:36 | 52.35568 | 13.50247 | 154 ft | 9 kts | 39° |
| 2026-05-07 17:36 | 52.35616 | 13.50364 | 155 ft | 16 kts | 67° |
| 2026-05-07 17:36 | 52.35654 | 13.50523 | 155 ft | 14 kts | 69° |
| 2026-05-07 17:36 | 52.35672 | 13.50600 | 155 ft | 0 kts | 69° |
| 2026-05-07 17:37 | 52.35672 | 13.50603 | 155 ft | 2 kts | 69° |
| 2026-05-07 17:37 | 52.35684 | 13.50652 | 155 ft | 8 kts | 69° |
| 2026-05-07 17:37 | 52.35713 | 13.50776 | 155 ft | 13 kts | 68° |
| 2026-05-07 17:38 | 52.35796 | 13.50812 | 155 ft | 16 kts | 338° |
| 2026-05-07 17:38 | 52.35889 | 13.50749 | 155 ft | 13 kts | 339° |
| 2026-05-07 17:38 | 52.35972 | 13.50699 | 155 ft | 12 kts | 339° |
| 2026-05-07 17:38 | 52.36053 | 13.50648 | 155 ft | 12 kts | 339° |
| 2026-05-07 17:39 | 52.36131 | 13.50599 | 155 ft | 12 kts | 339° |
| 2026-05-07 17:39 | 52.36201 | 13.50555 | 155 ft | 6 kts | 339° |
| 2026-05-07 17:39 | 52.36227 | 13.50595 | 155 ft | 6 kts | 68° |
| 2026-05-07 17:39 | 52.36241 | 13.50654 | 155 ft | 5 kts | 69° |
| 2026-05-07 17:40 | 52.36247 | 13.50681 | 155 ft | 0 kts | 68° |